sensor_id;sensor_type;location;lat;lon;timestamp;pressure;altitude;pressure_sealevel;temperature;humidity
61337;BME280;47212;41.326;2.104;2024-01-27T00:04:49;102901.34;;;13.68;69.61
61337;BME280;47212;41.326;2.104;2024-01-27T00:10:06;102895.50;;;13.64;69.84
61337;BME280;47212;41.326;2.104;2024-01-27T00:15:15;102891.78;;;13.59;70.06
61337;BME280;47212;41.326;2.104;2024-01-27T00:20:22;102886.75;;;13.56;70.12
61337;BME280;47212;41.326;2.104;2024-01-27T00:25:33;102890.19;;;13.51;69.77
61337;BME280;47212;41.326;2.104;2024-01-27T00:30:44;102881.00;;;13.46;70.23
61337;BME280;47212;41.326;2.104;2024-01-27T00:35:49;102878.56;;;13.37;70.20
61337;BME280;47212;41.326;2.104;2024-01-27T00:41:01;102865.81;;;13.31;70.22
61337;BME280;47212;41.326;2.104;2024-01-27T00:51:56;102865.66;;;13.26;69.91
61337;BME280;47212;41.326;2.104;2024-01-27T00:57:48;102852.22;;;13.25;70.05
61337;BME280;47212;41.326;2.104;2024-01-27T01:03:11;102856.84;;;13.24;69.99
61337;BME280;47212;41.326;2.104;2024-01-27T01:08:23;102860.66;;;13.23;69.54
61337;BME280;47212;41.326;2.104;2024-01-27T01:13:53;102855.47;;;13.15;69.58
61337;BME280;47212;41.326;2.104;2024-01-27T01:18:59;102860.41;;;13.06;69.76
61337;BME280;47212;41.326;2.104;2024-01-27T01:24:10;102862.25;;;12.88;69.93
61337;BME280;47212;41.326;2.104;2024-01-27T01:29:21;102859.81;;;12.80;70.23
61337;BME280;47212;41.326;2.104;2024-01-27T01:34:25;102860.72;;;12.73;70.96
61337;BME280;47212;41.326;2.104;2024-01-27T01:39:33;102857.81;;;12.68;70.70
61337;BME280;47212;41.326;2.104;2024-01-27T01:44:47;102859.94;;;12.66;71.41
61337;BME280;47212;41.326;2.104;2024-01-27T01:49:55;102866.91;;;12.62;71.06
61337;BME280;47212;41.326;2.104;2024-01-27T01:55:11;102844.44;;;12.60;70.74
61337;BME280;47212;41.326;2.104;2024-01-27T02:05:22;102848.03;;;12.61;70.86
61337;BME280;47212;41.326;2.104;2024-01-27T02:10:35;102844.91;;;12.57;71.14
61337;BME280;47212;41.326;2.104;2024-01-27T02:15:55;102850.81;;;12.54;70.10
61337;BME280;47212;41.326;2.104;2024-01-27T02:21:00;102850.88;;;12.48;70.73
61337;BME280;47212;41.326;2.104;2024-01-27T02:26:12;102846.69;;;12.45;70.49
61337;BME280;47212;41.326;2.104;2024-01-27T02:31:41;102847.75;;;12.44;70.99
61337;BME280;47212;41.326;2.104;2024-01-27T02:37:14;102847.16;;;12.42;70.46
61337;BME280;47212;41.326;2.104;2024-01-27T02:42:27;102842.97;;;12.39;70.48
61337;BME280;47212;41.326;2.104;2024-01-27T02:47:39;102841.28;;;12.38;69.73
61337;BME280;47212;41.326;2.104;2024-01-27T02:53:02;102845.91;;;12.38;69.91
61337;BME280;47212;41.326;2.104;2024-01-27T02:58:15;102843.63;;;12.35;69.50
61337;BME280;47212;41.326;2.104;2024-01-27T03:03:24;102841.34;;;12.32;69.42
61337;BME280;47212;41.326;2.104;2024-01-27T03:08:37;102845.59;;;12.28;69.91
61337;BME280;47212;41.326;2.104;2024-01-27T03:13:45;102845.59;;;12.28;69.39
61337;BME280;47212;41.326;2.104;2024-01-27T03:18:51;102843.91;;;12.27;69.11
61337;BME280;47212;41.326;2.104;2024-01-27T03:24:02;102850.44;;;12.26;69.40
61337;BME280;47212;41.326;2.104;2024-01-27T03:29:12;102846.88;;;12.25;70.14
61337;BME280;47212;41.326;2.104;2024-01-27T03:34:26;102843.75;;;12.22;69.86
61337;BME280;47212;41.326;2.104;2024-01-27T03:40:12;102851.94;;;12.22;69.55
61337;BME280;47212;41.326;2.104;2024-01-27T03:45:40;102842.91;;;12.21;69.64
61337;BME280;47212;41.326;2.104;2024-01-27T03:50:56;102835.16;;;12.18;69.15
61337;BME280;47212;41.326;2.104;2024-01-27T03:56:07;102826.75;;;12.20;69.62
61337;BME280;47212;41.326;2.104;2024-01-27T04:01:17;102824.69;;;12.15;69.39
61337;BME280;47212;41.326;2.104;2024-01-27T04:06:36;102811.22;;;12.13;69.42
61337;BME280;47212;41.326;2.104;2024-01-27T04:11:46;102818.81;;;12.11;69.28
61337;BME280;47212;41.326;2.104;2024-01-27T04:17:02;102818.00;;;12.04;69.33
61337;BME280;47212;41.326;2.104;2024-01-27T04:22:09;102815.56;;;11.96;68.43
61337;BME280;47212;41.326;2.104;2024-01-27T04:27:18;102812.47;;;11.86;68.97
61337;BME280;47212;41.326;2.104;2024-01-27T04:32:26;102812.69;;;11.85;69.39
61337;BME280;47212;41.326;2.104;2024-01-27T04:37:37;102802.63;;;11.85;69.29
61337;BME280;47212;41.326;2.104;2024-01-27T04:42:58;102800.34;;;11.82;69.23
61337;BME280;47212;41.326;2.104;2024-01-27T04:48:08;102795.09;;;11.80;69.15
61337;BME280;47212;41.326;2.104;2024-01-27T04:53:32;102798.06;;;11.79;68.87
61337;BME280;47212;41.326;2.104;2024-01-27T04:58:47;102797.00;;;11.80;68.28
61337;BME280;47212;41.326;2.104;2024-01-27T05:04:05;102793.66;;;11.78;69.03
61337;BME280;47212;41.326;2.104;2024-01-27T05:09:11;102798.47;;;11.76;67.95
61337;BME280;47212;41.326;2.104;2024-01-27T05:14:17;102791.78;;;11.72;67.71
61337;BME280;47212;41.326;2.104;2024-01-27T05:19:20;102797.66;;;11.69;67.75
61337;BME280;47212;41.326;2.104;2024-01-27T05:24:23;102803.56;;;11.66;67.38
61337;BME280;47212;41.326;2.104;2024-01-27T05:29:29;102801.50;;;11.61;68.63
61337;BME280;47212;41.326;2.104;2024-01-27T05:34:31;102798.81;;;11.55;68.21
61337;BME280;47212;41.326;2.104;2024-01-27T05:39:33;102805.13;;;11.48;68.31
61337;BME280;47212;41.326;2.104;2024-01-27T05:44:35;102804.94;;;11.43;68.15
61337;BME280;47212;41.326;2.104;2024-01-27T05:49:41;102802.03;;;11.38;68.12
61337;BME280;47212;41.326;2.104;2024-01-27T05:54:43;102795.78;;;11.31;68.91
61337;BME280;47212;41.326;2.104;2024-01-27T05:59:46;102816.97;;;11.29;69.09
61337;BME280;47212;41.326;2.104;2024-01-27T06:04:48;102825.16;;;11.29;68.35
61337;BME280;47212;41.326;2.104;2024-01-27T06:09:50;102820.75;;;11.28;69.28
61337;BME280;47212;41.326;2.104;2024-01-27T06:15:17;102833.34;;;11.29;68.89
61337;BME280;47212;41.326;2.104;2024-01-27T06:20:25;102839.00;;;11.28;69.00
61337;BME280;47212;41.326;2.104;2024-01-27T06:25:28;102837.28;;;11.27;68.27
61337;BME280;47212;41.326;2.104;2024-01-27T06:30:30;102843.63;;;11.27;68.79
61337;BME280;47212;41.326;2.104;2024-01-27T06:35:35;102852.63;;;11.28;68.05
61337;BME280;47212;41.326;2.104;2024-01-27T06:40:42;102862.06;;;11.25;67.96
61337;BME280;47212;41.326;2.104;2024-01-27T06:45:44;102861.66;;;11.22;68.11
61337;BME280;47212;41.326;2.104;2024-01-27T06:50:46;102870.69;;;11.15;68.46
61337;BME280;47212;41.326;2.104;2024-01-27T06:55:48;102867.53;;;11.12;68.05
61337;BME280;47212;41.326;2.104;2024-01-27T07:00:57;102864.63;;;11.07;68.78
61337;BME280;47212;41.326;2.104;2024-01-27T07:06:03;102864.63;;;11.07;67.83
61337;BME280;47212;41.326;2.104;2024-01-27T07:11:05;102873.84;;;11.06;68.38
61337;BME280;47212;41.326;2.104;2024-01-27T07:16:07;102883.50;;;11.08;67.76
61337;BME280;47212;41.326;2.104;2024-01-27T07:21:20;102886.00;;;11.10;67.70
61337;BME280;47212;41.326;2.104;2024-01-27T07:26:23;102884.94;;;11.11;68.04
61337;BME280;47212;41.326;2.104;2024-01-27T07:31:27;102887.69;;;11.11;68.05
61337;BME280;47212;41.326;2.104;2024-01-27T07:36:29;102892.69;;;11.14;67.58
61337;BME280;47212;41.326;2.104;2024-01-27T07:41:34;102889.34;;;11.18;67.22
61337;BME280;47212;41.326;2.104;2024-01-27T07:46:38;102904.44;;;11.28;66.83
61337;BME280;47212;41.326;2.104;2024-01-27T07:51:40;102895.59;;;11.39;66.62
61337;BME280;47212;41.326;2.104;2024-01-27T07:56:42;102899.72;;;11.55;66.45
61337;BME280;47212;41.326;2.104;2024-01-27T08:01:44;102903.84;;;11.70;66.26
61337;BME280;47212;41.326;2.104;2024-01-27T08:06:48;102913.44;;;11.86;65.70
61337;BME280;47212;41.326;2.104;2024-01-27T08:11:51;102920.75;;;12.30;64.93
61337;BME280;47212;41.326;2.104;2024-01-27T08:17:05;102913.72;;;15.82;57.05
61337;BME280;47212;41.326;2.104;2024-01-27T08:22:07;102920.13;;;17.72;52.41
61337;BME280;47212;41.326;2.104;2024-01-27T08:27:11;102918.47;;;19.26;48.04
61337;BME280;47212;41.326;2.104;2024-01-27T08:32:13;102936.03;;;20.40;43.46
61337;BME280;47212;41.326;2.104;2024-01-27T08:37:19;102938.00;;;20.85;43.63
61337;BME280;47212;41.326;2.104;2024-01-27T08:42:26;102948.22;;;20.59;43.33
61337;BME280;47212;41.326;2.104;2024-01-27T08:47:28;102938.47;;;20.11;45.99
61337;BME280;47212;41.326;2.104;2024-01-27T08:52:31;102942.59;;;20.14;46.15
61337;BME280;47212;41.326;2.104;2024-01-27T08:57:36;102946.38;;;19.82;45.88
61337;BME280;47212;41.326;2.104;2024-01-27T09:02:45;102941.03;;;19.60;45.59
61337;BME280;47212;41.326;2.104;2024-01-27T09:07:47;102948.06;;;19.36;46.85
61337;BME280;47212;41.326;2.104;2024-01-27T09:12:49;102946.91;;;19.27;43.91
61337;BME280;47212;41.326;2.104;2024-01-27T09:17:51;102944.16;;;19.27;47.08
61337;BME280;47212;41.326;2.104;2024-01-27T09:22:54;102952.19;;;19.28;47.06
61337;BME280;47212;41.326;2.104;2024-01-27T09:27:56;102953.88;;;19.39;46.81
61337;BME280;47212;41.326;2.104;2024-01-27T09:33:02;102955.59;;;19.51;46.80
61337;BME280;47212;41.326;2.104;2024-01-27T09:38:05;102967.56;;;19.61;46.37
61337;BME280;47212;41.326;2.104;2024-01-27T09:43:15;102974.78;;;19.72;44.61
61337;BME280;47212;41.326;2.104;2024-01-27T09:48:20;102973.16;;;19.82;45.63
61337;BME280;47212;41.326;2.104;2024-01-27T09:53:22;102969.88;;;19.90;45.83
61337;BME280;47212;41.326;2.104;2024-01-27T09:58:26;102984.88;;;20.04;44.81
61337;BME280;47212;41.326;2.104;2024-01-27T10:03:30;102981.59;;;20.12;45.76
61337;BME280;47212;41.326;2.104;2024-01-27T10:08:32;102980.25;;;20.30;45.25
61337;BME280;47212;41.326;2.104;2024-01-27T10:13:35;102990.81;;;20.48;45.04
61337;BME280;47212;41.326;2.104;2024-01-27T10:18:38;102983.06;;;20.65;44.93
61337;BME280;47212;41.326;2.104;2024-01-27T10:23:42;102991.97;;;20.83;44.69
61337;BME280;47212;41.326;2.104;2024-01-27T10:28:56;102983.91;;;21.02;41.80
61337;BME280;47212;41.326;2.104;2024-01-27T10:33:58;102994.44;;;21.15;44.41
61337;BME280;47212;41.326;2.104;2024-01-27T10:39:16;102993.31;;;21.16;41.97
61337;BME280;47212;41.326;2.104;2024-01-27T10:44:27;102985.00;;;21.21;42.48
61337;BME280;47212;41.326;2.104;2024-01-27T10:49:33;102994.72;;;21.23;43.77
61337;BME280;47212;41.326;2.104;2024-01-27T10:54:36;102988.34;;;21.23;44.97
61337;BME280;47212;41.326;2.104;2024-01-27T10:59:41;102983.34;;;21.20;45.88
61337;BME280;47212;41.326;2.104;2024-01-27T11:04:48;102977.84;;;20.99;47.59
61337;BME280;47212;41.326;2.104;2024-01-27T11:09:51;102981.72;;;20.88;48.99
61337;BME280;47212;41.326;2.104;2024-01-27T11:14:55;102971.75;;;21.03;49.39
61337;BME280;47212;41.326;2.104;2024-01-27T11:20:04;102959.53;;;21.14;49.48
61337;BME280;47212;41.326;2.104;2024-01-27T11:35:30;102936.31;;;20.74;49.01
61337;BME280;47212;41.326;2.104;2024-01-27T11:40:32;102938.81;;;20.86;49.11
61337;BME280;47212;41.326;2.104;2024-01-27T11:45:35;102932.44;;;20.90;49.37
61337;BME280;47212;41.326;2.104;2024-01-27T11:50:37;102918.56;;;21.06;49.44
61337;BME280;47212;41.326;2.104;2024-01-27T11:55:39;102919.09;;;21.18;49.53
61337;BME280;47212;41.326;2.104;2024-01-27T12:00:46;102917.44;;;21.17;49.98
61337;BME280;47212;41.326;2.104;2024-01-27T12:05:48;102903.59;;;21.27;50.15
61337;BME280;47212;41.326;2.104;2024-01-27T12:10:51;102899.75;;;21.03;50.33
61337;BME280;47212;41.326;2.104;2024-01-27T12:15:54;102891.19;;;20.94;50.82
61337;BME280;47212;41.326;2.104;2024-01-27T12:21:00;102889.56;;;20.57;50.64
61337;BME280;47212;41.326;2.104;2024-01-27T12:26:02;102898.66;;;20.38;51.41
61337;BME280;47212;41.326;2.104;2024-01-27T12:31:08;102899.25;;;20.45;51.71
61337;BME280;47212;41.326;2.104;2024-01-27T12:36:14;102893.69;;;20.34;51.67
61337;BME280;47212;41.326;2.104;2024-01-27T12:41:17;102892.84;;;20.19;52.05
61337;BME280;47212;41.326;2.104;2024-01-27T12:46:25;102887.59;;;20.17;52.37
61337;BME280;47212;41.326;2.104;2024-01-27T12:51:30;102884.00;;;20.32;53.14
61337;BME280;47212;41.326;2.104;2024-01-27T12:56:35;102880.44;;;20.47;53.08
61337;BME280;47212;41.326;2.104;2024-01-27T13:01:38;102877.94;;;20.55;53.15
61337;BME280;47212;41.326;2.104;2024-01-27T13:06:42;102860.78;;;20.58;53.19
61337;BME280;47212;41.326;2.104;2024-01-27T13:11:49;102855.78;;;20.65;53.37
61337;BME280;47212;41.326;2.104;2024-01-27T13:16:52;102857.72;;;20.60;53.26
61337;BME280;47212;41.326;2.104;2024-01-27T13:21:57;102848.88;;;20.38;53.13
61337;BME280;47212;41.326;2.104;2024-01-27T13:27:00;102839.47;;;20.39;53.46
61337;BME280;47212;41.326;2.104;2024-01-27T13:32:10;102838.66;;;20.43;53.81
61337;BME280;47212;41.326;2.104;2024-01-27T13:37:20;102826.19;;;20.51;54.46
61337;BME280;47212;41.326;2.104;2024-01-27T13:42:22;102818.19;;;20.49;54.13
61337;BME280;47212;41.326;2.104;2024-01-27T13:47:24;102809.03;;;20.54;53.87
61337;BME280;47212;41.326;2.104;2024-01-27T13:52:30;102797.41;;;20.62;54.42
61337;BME280;47212;41.326;2.104;2024-01-27T13:57:35;102793.50;;;20.68;54.28
61337;BME280;47212;41.326;2.104;2024-01-27T14:02:37;102798.22;;;20.67;53.72
61337;BME280;47212;41.326;2.104;2024-01-27T14:07:40;102794.09;;;20.60;53.56
61337;BME280;47212;41.326;2.104;2024-01-27T14:12:42;102782.78;;;20.51;54.26
61337;BME280;47212;41.326;2.104;2024-01-27T14:17:44;102776.97;;;20.53;54.90
61337;BME280;47212;41.326;2.104;2024-01-27T14:22:47;102786.38;;;20.47;54.84
61337;BME280;47212;41.326;2.104;2024-01-27T14:27:49;102780.28;;;20.50;55.29
61337;BME280;47212;41.326;2.104;2024-01-27T14:32:51;102764.25;;;20.47;55.13
61337;BME280;47212;41.326;2.104;2024-01-27T14:37:54;102764.81;;;20.13;55.79
61337;BME280;47212;41.326;2.104;2024-01-27T14:42:58;102767.03;;;20.01;56.24
61337;BME280;47212;41.326;2.104;2024-01-27T14:48:01;102768.13;;;19.85;56.60
61337;BME280;47212;41.326;2.104;2024-01-27T14:53:05;102766.44;;;19.63;57.41
61337;BME280;47212;41.326;2.104;2024-01-27T14:58:08;102771.09;;;19.48;57.89
61337;BME280;47212;41.326;2.104;2024-01-27T15:03:10;102780.69;;;19.25;58.37
61337;BME280;47212;41.326;2.104;2024-01-27T15:08:15;102769.50;;;18.89;59.55
61337;BME280;47212;41.326;2.104;2024-01-27T15:13:18;102778.69;;;18.58;60.92
61337;BME280;47212;41.326;2.104;2024-01-27T15:18:29;102775.25;;;18.40;61.69
61337;BME280;47212;41.326;2.104;2024-01-27T15:23:31;102773.06;;;18.42;61.96
61337;BME280;47212;41.326;2.104;2024-01-27T15:28:33;102772.00;;;18.49;62.31
61337;BME280;47212;41.326;2.104;2024-01-27T15:33:36;102771.41;;;18.41;62.37
61337;BME280;47212;41.326;2.104;2024-01-27T15:38:39;102769.91;;;18.24;63.62
61337;BME280;47212;41.326;2.104;2024-01-27T15:43:41;102766.31;;;18.23;64.39
61337;BME280;47212;41.326;2.104;2024-01-27T15:48:49;102768.19;;;18.18;65.34
61337;BME280;47212;41.326;2.104;2024-01-27T15:53:51;102773.34;;;18.09;65.61
61337;BME280;47212;41.326;2.104;2024-01-27T15:58:54;102775.16;;;17.93;65.79
61337;BME280;47212;41.326;2.104;2024-01-27T16:03:56;102775.19;;;17.66;66.26
61337;BME280;47212;41.326;2.104;2024-01-27T16:09:07;102781.28;;;17.46;66.15
61337;BME280;47212;41.326;2.104;2024-01-27T16:14:10;102770.44;;;17.35;66.75
61337;BME280;47212;41.326;2.104;2024-01-27T16:19:13;102771.44;;;17.29;67.31
61337;BME280;47212;41.326;2.104;2024-01-27T16:24:15;102774.06;;;17.18;67.62
61337;BME280;47212;41.326;2.104;2024-01-27T16:29:17;102772.28;;;17.07;68.40
61337;BME280;47212;41.326;2.104;2024-01-27T16:34:29;102760.91;;;16.99;68.77
61337;BME280;47212;41.326;2.104;2024-01-27T16:39:33;102768.06;;;16.78;69.55
61337;BME280;47212;41.326;2.104;2024-01-27T16:44:35;102771.25;;;16.70;69.22
61337;BME280;47212;41.326;2.104;2024-01-27T16:49:38;102774.75;;;16.48;70.28
61337;BME280;47212;41.326;2.104;2024-01-27T16:54:40;102788.41;;;16.27;70.64
61337;BME280;47212;41.326;2.104;2024-01-27T16:59:42;102797.00;;;16.13;72.24
61337;BME280;47212;41.326;2.104;2024-01-27T17:04:46;102794.91;;;16.04;72.84
61337;BME280;47212;41.326;2.104;2024-01-27T17:09:51;102794.16;;;15.91;73.66
61337;BME280;47212;41.326;2.104;2024-01-27T17:14:53;102794.16;;;15.91;74.22
61337;BME280;47212;41.326;2.104;2024-01-27T17:19:56;102793.34;;;15.91;73.65
61337;BME280;47212;41.326;2.104;2024-01-27T17:25:02;102805.16;;;15.91;74.14
61337;BME280;47212;41.326;2.104;2024-01-27T17:30:05;102810.56;;;15.86;75.00
61337;BME280;47212;41.326;2.104;2024-01-27T17:35:11;102808.56;;;15.82;75.00
61337;BME280;47212;41.326;2.104;2024-01-27T17:40:15;102807.72;;;15.81;74.99
61337;BME280;47212;41.326;2.104;2024-01-27T17:45:20;102803.91;;;15.82;74.77
61337;BME280;47212;41.326;2.104;2024-01-27T17:50:22;102813.22;;;15.81;75.42
61337;BME280;47212;41.326;2.104;2024-01-27T17:55:27;102815.88;;;15.76;76.12
61337;BME280;47212;41.326;2.104;2024-01-27T18:00:29;102817.19;;;15.74;75.53
61337;BME280;47212;41.326;2.104;2024-01-27T18:05:31;102826.16;;;15.69;75.74
61337;BME280;47212;41.326;2.104;2024-01-27T18:10:34;102829.41;;;15.66;76.08
61337;BME280;47212;41.326;2.104;2024-01-27T18:15:39;102825.94;;;15.59;76.07
61337;BME280;47212;41.326;2.104;2024-01-27T18:20:42;102837.88;;;15.53;76.46
61337;BME280;47212;41.326;2.104;2024-01-27T18:25:47;102832.03;;;15.49;76.81
61337;BME280;47212;41.326;2.104;2024-01-27T18:30:49;102836.59;;;15.44;77.30
61337;BME280;47212;41.326;2.104;2024-01-27T18:35:51;102835.41;;;15.40;77.70
61337;BME280;47212;41.326;2.104;2024-01-27T18:40:54;102840.81;;;15.35;77.93
61337;BME280;47212;41.326;2.104;2024-01-27T18:45:59;102837.94;;;15.29;77.91
61337;BME280;47212;41.326;2.104;2024-01-27T18:51:03;102844.41;;;15.23;78.41
61337;BME280;47212;41.326;2.104;2024-01-27T18:56:08;102854.19;;;15.19;78.55
61337;BME280;47212;41.326;2.104;2024-01-27T19:01:15;102853.63;;;15.17;78.87
61337;BME280;47212;41.326;2.104;2024-01-27T19:06:17;102853.50;;;15.12;79.24
61337;BME280;47212;41.326;2.104;2024-01-27T19:11:23;102854.81;;;15.10;79.53
61337;BME280;47212;41.326;2.104;2024-01-27T19:16:25;102854.47;;;15.06;80.42
61337;BME280;47212;41.326;2.104;2024-01-27T19:21:27;102863.19;;;15.03;83.20
61337;BME280;47212;41.326;2.104;2024-01-27T19:26:29;102859.25;;;14.99;83.86
61337;BME280;47212;41.326;2.104;2024-01-27T19:31:32;102861.63;;;14.95;80.70
61337;BME280;47212;41.326;2.104;2024-01-27T19:36:35;102855.56;;;14.93;81.01
61337;BME280;47212;41.326;2.104;2024-01-27T19:41:40;102855.22;;;14.90;82.00
61337;BME280;47212;41.326;2.104;2024-01-27T19:46:42;102851.88;;;14.88;81.81
61337;BME280;47212;41.326;2.104;2024-01-27T19:51:47;102859.50;;;14.86;82.25
61337;BME280;47212;41.326;2.104;2024-01-27T19:56:52;102863.31;;;14.85;81.85
61337;BME280;47212;41.326;2.104;2024-01-27T20:01:55;102858.31;;;14.82;82.21
61337;BME280;47212;41.326;2.104;2024-01-27T20:07:00;102859.63;;;14.79;81.88
61337;BME280;47212;41.326;2.104;2024-01-27T20:12:06;102853.16;;;14.74;81.92
61337;BME280;47212;41.326;2.104;2024-01-27T20:17:08;102860.19;;;14.70;82.03
61337;BME280;47212;41.326;2.104;2024-01-27T20:22:10;102861.50;;;14.67;85.19
61337;BME280;47212;41.326;2.104;2024-01-27T20:27:13;102859.94;;;14.59;81.97
61337;BME280;47212;41.326;2.104;2024-01-27T20:32:16;102860.91;;;14.53;81.91
61337;BME280;47212;41.326;2.104;2024-01-27T20:37:18;102854.47;;;14.48;81.60
61337;BME280;47212;41.326;2.104;2024-01-27T20:42:20;102857.09;;;14.43;83.64
61337;BME280;47212;41.326;2.104;2024-01-27T20:47:22;102861.56;;;14.37;81.37
61337;BME280;47212;41.326;2.104;2024-01-27T20:52:25;102867.53;;;14.34;81.42
61337;BME280;47212;41.326;2.104;2024-01-27T20:57:27;102867.16;;;14.30;83.22
61337;BME280;47212;41.326;2.104;2024-01-27T21:02:29;102858.81;;;14.25;81.12
61337;BME280;47212;41.326;2.104;2024-01-27T21:07:31;102866.19;;;14.25;81.14
61337;BME280;47212;41.326;2.104;2024-01-27T21:12:33;102866.66;;;14.22;80.81
61337;BME280;47212;41.326;2.104;2024-01-27T21:17:35;102864.41;;;14.19;82.09
61337;BME280;47212;41.326;2.104;2024-01-27T21:22:37;102862.38;;;14.14;80.02
61337;BME280;47212;41.326;2.104;2024-01-27T21:27:40;102857.59;;;14.10;79.72
61337;BME280;47212;41.326;2.104;2024-01-27T21:32:43;102849.47;;;14.03;79.16
61337;BME280;47212;41.326;2.104;2024-01-27T21:37:45;102856.72;;;13.97;79.06
61337;BME280;47212;41.326;2.104;2024-01-27T21:42:47;102858.13;;;13.88;79.42
61337;BME280;47212;41.326;2.104;2024-01-27T21:47:53;102850.59;;;13.84;78.52
61337;BME280;47212;41.326;2.104;2024-01-27T21:52:55;102852.72;;;13.82;78.40
61337;BME280;47212;41.326;2.104;2024-01-27T21:57:57;102852.81;;;13.75;78.93
61337;BME280;47212;41.326;2.104;2024-01-27T22:03:00;102854.34;;;13.71;77.93
61337;BME280;47212;41.326;2.104;2024-01-27T22:08:02;102849.56;;;13.66;78.70
61337;BME280;47212;41.326;2.104;2024-01-27T22:13:05;102847.06;;;13.65;77.72
61337;BME280;47212;41.326;2.104;2024-01-27T22:18:09;102855.13;;;13.60;77.82
61337;BME280;47212;41.326;2.104;2024-01-27T22:23:14;102845.13;;;13.54;77.87
61337;BME280;47212;41.326;2.104;2024-01-27T22:28:17;102843.91;;;13.50;77.80
61337;BME280;47212;41.326;2.104;2024-01-27T22:33:19;102844.97;;;13.49;77.72
61337;BME280;47212;41.326;2.104;2024-01-27T22:38:22;102841.03;;;13.45;77.38
61337;BME280;47212;41.326;2.104;2024-01-27T22:43:45;102853.72;;;13.39;78.11
61337;BME280;47212;41.326;2.104;2024-01-27T22:49:00;102846.91;;;13.30;77.94
61337;BME280;47212;41.326;2.104;2024-01-27T22:54:06;102842.13;;;13.25;77.87
61337;BME280;47212;41.326;2.104;2024-01-27T22:59:08;102841.75;;;13.22;77.84
61337;BME280;47212;41.326;2.104;2024-01-27T23:04:10;102853.13;;;13.19;78.16
61337;BME280;47212;41.326;2.104;2024-01-27T23:09:20;102852.72;;;13.15;77.79
61337;BME280;47212;41.326;2.104;2024-01-27T23:14:32;102847.72;;;13.12;78.13
61337;BME280;47212;41.326;2.104;2024-01-27T23:19:34;102846.28;;;13.10;77.64
61337;BME280;47212;41.326;2.104;2024-01-27T23:24:36;102849.47;;;13.06;78.27
61337;BME280;47212;41.326;2.104;2024-01-27T23:29:39;102849.69;;;13.05;78.26
61337;BME280;47212;41.326;2.104;2024-01-27T23:35:09;102835.84;;;13.00;78.15
61337;BME280;47212;41.326;2.104;2024-01-27T23:40:11;102842.81;;;12.96;78.43
61337;BME280;47212;41.326;2.104;2024-01-27T23:45:14;102838.88;;;12.92;78.46
61337;BME280;47212;41.326;2.104;2024-01-27T23:50:17;102831.97;;;12.89;78.30
61337;BME280;47212;41.326;2.104;2024-01-27T23:55:28;102826.56;;;12.83;78.33
